West Bend, WI

1:52 AM CST on December 16, 2019 (GMT -0600)
West Bend Municipal

Weather History for KETB - November, 2019

Change the Weather History Date:

Tuesday, November 12, 2019

  Actual Average Record
Temperature  
Mean Temperature 12 °F -  
Max Temperature 17 °F 42 °F 63 °F (1930)
Min Temperature 6 °F 27 °F 6 °F (2019)
Degree Days  
Heating Degree Days 54    
Moisture  
Dew Point 1 °F    
Average Humidity 63    
Maximum Humidity 79    
Minimum Humidity 45    
Precipitation  
Precipitation 0.00 in - - ()
Sea Level Pressure  
Sea Level Pressure 30.39 in    
Wind  
Wind Speed 10 mph (WNW)    
Max Wind Speed 16 mph    
Max Gust Speed 21 mph    
Visibility 10 miles    
Events      
Averages and records for this station are not official NWS values.
T = Trace of Precipitation, MM = Missing Value Source: NWS Daily Summary

Daily Weather History Graph

Daily Weather History Graph

Search for Another Location

Airport or City:

Astronomy

Nov. 12, 2019 Rise Set
Actual Time 6:41 AM CST 4:30 PM CST
Civil Twilight 6:11 AM CST 5:01 PM CST
Nautical Twilight 5:36 AM CST 5:35 PM CST
Astronomical Twilight 5:03 AM CST 6:09 PM CST
Moon 4:58 PM CST (11/12) 6:31 AM CST (11/12)
Length of Visible Light 10h 50m
Length of Day
9h 49m
Full, 100% of the Moon is Illuminated
Nov 12
Full
Nov 19
Last Quarter
Nov 26
New
Dec 4
First Quarter
Dec 11
Full

Hourly Weather History & Observations

Time (CST) Temp. Windchill Dew Point Humidity Pressure Visibility Wind Dir Wind Speed Gust Speed Precip Events Conditions
12:15 AM 12.2 °F -4.3 °F 1.4 °F 62% 30.38 in 10.0 mi NW 16.1 mph 20.7 mph N/A   Clear
12:35 AM 12.2 °F -1.8 °F 1.4 °F 62% 30.39 in 10.0 mi NW 11.5 mph 17.3 mph N/A   Clear
1:15 AM 10.4 °F -4.1 °F 1.4 °F 67% 30.39 in 10.0 mi NW 11.5 mph 18.4 mph N/A   Clear
1:35 AM 10.4 °F -4.1 °F 1.4 °F 67% 30.39 in 10.0 mi NW 11.5 mph 20.7 mph N/A   Clear
1:55 AM 10.4 °F -3.3 °F 1.4 °F 67% 30.40 in 10.0 mi WNW 10.4 mph 16.1 mph N/A   Clear
2:15 AM 10.4 °F -4.1 °F 1.4 °F 67% 30.40 in 10.0 mi WNW 11.5 mph 19.6 mph N/A   Clear
2:35 AM 10.4 °F -4.8 °F 1.4 °F 67% 30.40 in 10.0 mi WNW 12.7 mph 18.4 mph N/A   Clear
2:55 AM 10.4 °F -4.8 °F 1.4 °F 67% 30.40 in 10.0 mi NW 12.7 mph - N/A   Clear
3:15 AM 8.6 °F -4.7 °F 1.4 °F 73% 30.40 in 10.0 mi NW 9.2 mph - N/A   Clear
3:35 AM 8.6 °F -3.7 °F 1.4 °F 73% 30.40 in 10.0 mi WNW 8.1 mph 16.1 mph N/A   Clear
3:55 AM 8.6 °F -7.7 °F 1.4 °F 73% 30.41 in 10.0 mi NW 13.8 mph 19.6 mph N/A   Clear
4:35 AM 8.6 °F -7.0 °F -0.4 °F 67% 30.41 in 10.0 mi NW 12.7 mph - N/A   Clear
4:55 AM 8.6 °F -5.5 °F -0.4 °F 67% 30.41 in 10.0 mi WNW 10.4 mph - N/A   Clear
5:15 AM 6.8 °F -6.9 °F -0.4 °F 72% 30.42 in 10.0 mi NW 9.2 mph 16.1 mph N/A   Clear
5:35 AM 6.8 °F -6.9 °F -0.4 °F 72% 30.42 in 10.0 mi NW 9.2 mph - N/A   Clear
5:55 AM 6.8 °F -9.3 °F -0.4 °F 72% 30.42 in 10.0 mi NW 12.7 mph 16.1 mph N/A   Clear
6:15 AM 6.8 °F -9.3 °F -0.4 °F 72% 30.42 in 10.0 mi NW 12.7 mph 17.3 mph N/A   Clear
6:35 AM 6.8 °F -8.6 °F -0.4 °F 72% 30.42 in 10.0 mi NW 11.5 mph 17.3 mph N/A   Clear
6:55 AM 6.8 °F -8.6 °F -0.4 °F 72% 30.44 in 10.0 mi NW 11.5 mph 18.4 mph N/A   Clear
7:15 AM 8.6 °F -5.5 °F -0.4 °F 67% 30.44 in 10.0 mi WNW 10.4 mph 17.3 mph N/A   Clear
7:35 AM 8.6 °F -6.3 °F 1.4 °F 73% 30.45 in 10.0 mi WNW 11.5 mph - N/A   Clear
7:55 AM 8.6 °F -7.7 °F 1.4 °F 73% 30.45 in 10.0 mi WNW 13.8 mph 18.4 mph N/A   Clear
8:15 AM 8.6 °F -7.7 °F 1.4 °F 73% 30.45 in 10.0 mi NW 13.8 mph 20.7 mph N/A   Clear
8:35 AM 10.4 °F -5.4 °F 1.4 °F 67% 30.45 in 10.0 mi WNW 13.8 mph - N/A   Clear
8:55 AM 10.4 °F -2.4 °F 1.4 °F 67% 30.45 in 10.0 mi NW 9.2 mph 19.6 mph N/A   Clear
9:15 AM 12.2 °F -3.1 °F 1.4 °F 62% 30.45 in 10.0 mi NNW 13.8 mph - N/A   Clear
9:35 AM 12.2 °F -2.5 °F 1.4 °F 62% 30.45 in 10.0 mi NW 12.7 mph 17.3 mph N/A   Clear
9:55 AM 12.2 °F -1.8 °F 1.4 °F 62% 30.45 in 10.0 mi NW 11.5 mph - N/A   Unknown
10:15 AM 14.0 °F -0.2 °F 1.4 °F 57% 30.45 in 10.0 mi WNW 12.7 mph - N/A   Clear
10:35 AM 14.0 °F -0.2 °F 1.4 °F 57% 30.45 in 10.0 mi WNW 12.7 mph - N/A   Clear
10:55 AM 14.0 °F 0.5 °F 1.4 °F 57% 30.45 in 10.0 mi NW 11.5 mph - N/A   Clear
11:15 AM 15.8 °F 1.4 °F 1.4 °F 53% 30.44 in 10.0 mi WNW 13.8 mph - N/A   Clear
11:35 AM 17.6 °F 5.7 °F 1.4 °F 49% 30.43 in 10.0 mi NNW 10.4 mph - N/A   Clear
11:55 AM 15.8 °F 1.4 °F -0.4 °F 49% 30.43 in 10.0 mi NW 13.8 mph - N/A   Clear
12:15 PM 17.6 °F 5.0 °F -0.4 °F 45% 30.42 in 10.0 mi WNW 11.5 mph 18.4 mph N/A   Clear
12:35 PM 17.6 °F 5.7 °F 1.4 °F 49% 30.42 in 10.0 mi WNW 10.4 mph 17.3 mph N/A   Clear
1:15 PM 17.6 °F 5.0 °F 1.4 °F 49% 30.40 in 10.0 mi WNW 11.5 mph - N/A   Clear
1:35 PM 17.6 °F 5.0 °F 1.4 °F 49% 30.40 in 10.0 mi West 11.5 mph - N/A   Clear
1:55 PM 17.6 °F 8.2 °F 1.4 °F 49% 30.40 in 10.0 mi WNW 6.9 mph - N/A   Clear
2:15 PM 17.6 °F 7.3 °F 1.4 °F 49% 30.39 in 10.0 mi West 8.1 mph - N/A   Clear
2:35 PM 17.6 °F 7.3 °F 1.4 °F 49% 30.39 in 10.0 mi WNW 8.1 mph - N/A   Clear
2:55 PM 17.6 °F 5.7 °F 1.4 °F 49% 30.39 in 10.0 mi West 10.4 mph - N/A   Clear
3:15 PM 17.6 °F 5.7 °F 1.4 °F 49% 30.39 in 10.0 mi West 10.4 mph 16.1 mph N/A   Clear
3:35 PM 17.6 °F 7.3 °F -0.4 °F 45% 30.38 in 10.0 mi West 8.1 mph - N/A   Clear
3:55 PM 17.6 °F 8.2 °F -0.4 °F 45% 30.38 in 10.0 mi West 6.9 mph - N/A   Clear
4:15 PM 15.8 °F 8.6 °F -0.4 °F 49% 30.38 in 10.0 mi West 4.6 mph - N/A   Clear
4:35 PM 14.0 °F 8.2 °F -0.4 °F 53% 30.38 in 10.0 mi SW 3.5 mph - N/A   Clear
4:55 PM 14.0 °F 6.5 °F -0.4 °F 53% 30.37 in 10.0 mi WSW 4.6 mph - N/A   Clear
5:15 PM 14.0 °F 8.2 °F 1.4 °F 57% 30.37 in 10.0 mi SSW 3.5 mph - N/A   Clear
5:35 PM 12.2 °F 6.1 °F 1.4 °F 62% 30.37 in 10.0 mi SSW 3.5 mph - N/A   Clear
6:15 PM 12.2 °F 6.1 °F 1.4 °F 62% 30.36 in 10.0 mi SSW 3.5 mph - N/A   Clear
6:55 PM 10.4 °F 4.0 °F 1.4 °F 67% 30.35 in 10.0 mi SW 3.5 mph - N/A   Clear
7:15 PM 10.4 °F 4.0 °F 1.4 °F 67% 30.35 in 10.0 mi SSW 3.5 mph - N/A   Clear
7:35 PM 10.4 °F - 1.4 °F 67% 30.35 in 10.0 mi Calm Calm - N/A   Clear
7:55 PM 8.6 °F - 1.4 °F 73% 30.34 in 10.0 mi Calm Calm - N/A   Clear
8:15 PM 8.6 °F 2.0 °F 1.4 °F 73% 30.33 in 10.0 mi SSW 3.5 mph - N/A   Clear
8:35 PM 8.6 °F 0.1 °F 1.4 °F 73% 30.33 in 10.0 mi SW 4.6 mph - N/A   Clear
8:55 PM 8.6 °F - 1.4 °F 73% 30.33 in 10.0 mi Calm Calm - N/A   Clear
9:15 PM 8.6 °F - 1.4 °F 73% 30.32 in 10.0 mi Calm Calm - N/A   Clear
9:35 PM 8.6 °F 2.0 °F 1.4 °F 73% 30.31 in 10.0 mi SSW 3.5 mph - N/A   Clear
9:55 PM 8.6 °F - 1.4 °F 73% 30.32 in 10.0 mi Calm Calm - N/A   Clear
10:15 PM 6.8 °F -2.0 °F 1.4 °F 79% 30.31 in 10.0 mi SW 4.6 mph - N/A   Clear
10:35 PM 6.8 °F -2.0 °F 1.4 °F 79% 30.30 in 10.0 mi SW 4.6 mph - N/A   Clear
10:55 PM 6.8 °F -4.8 °F 1.4 °F 79% 30.30 in 10.0 mi SW 6.9 mph - N/A   Clear
11:15 PM 10.4 °F 0.8 °F 3.2 °F 73% 30.30 in 10.0 mi SW 5.8 mph - N/A   Scattered Clouds